sensor_id;sensor_type;location;lat;lon;timestamp;P1;durP1;ratioP1;P2;durP2;ratioP2
17310;SDS011;8773;43.300;0.394;2023-10-31T00:02:21;3.47;;;1.60;;
17310;SDS011;8773;43.300;0.394;2023-10-31T00:04:48;2.73;;;1.50;;
17310;SDS011;8773;43.300;0.394;2023-10-31T00:07:15;2.20;;;1.50;;
17310;SDS011;8773;43.300;0.394;2023-10-31T00:09:43;2.73;;;1.80;;
17310;SDS011;8773;43.300;0.394;2023-10-31T00:12:10;2.33;;;1.80;;
17310;SDS011;8773;43.300;0.394;2023-10-31T00:14:38;3.53;;;1.90;;
17310;SDS011;8773;43.300;0.394;2023-10-31T00:17:07;2.93;;;1.70;;
17310;SDS011;8773;43.300;0.394;2023-10-31T00:19:35;2.07;;;1.63;;
17310;SDS011;8773;43.300;0.394;2023-10-31T00:22:02;2.80;;;1.67;;
17310;SDS011;8773;43.300;0.394;2023-10-31T00:24:30;2.87;;;1.50;;
17310;SDS011;8773;43.300;0.394;2023-10-31T00:26:57;3.37;;;1.57;;
17310;SDS011;8773;43.300;0.394;2023-10-31T00:29:24;2.73;;;1.40;;
17310;SDS011;8773;43.300;0.394;2023-10-31T00:31:52;2.57;;;1.50;;
17310;SDS011;8773;43.300;0.394;2023-10-31T00:34:21;1.77;;;1.60;;
17310;SDS011;8773;43.300;0.394;2023-10-31T00:36:49;2.40;;;1.20;;
17310;SDS011;8773;43.300;0.394;2023-10-31T00:39:16;1.40;;;1.30;;
17310;SDS011;8773;43.300;0.394;2023-10-31T00:41:43;1.33;;;1.20;;
17310;SDS011;8773;43.300;0.394;2023-10-31T00:44:12;1.70;;;1.10;;
17310;SDS011;8773;43.300;0.394;2023-10-31T00:46:40;1.80;;;0.83;;
17310;SDS011;8773;43.300;0.394;2023-10-31T00:49:07;2.47;;;1.20;;
17310;SDS011;8773;43.300;0.394;2023-10-31T00:51:36;2.40;;;1.20;;
17310;SDS011;8773;43.300;0.394;2023-10-31T00:54:03;1.20;;;0.90;;
17310;SDS011;8773;43.300;0.394;2023-10-31T00:56:30;1.37;;;1.03;;
17310;SDS011;8773;43.300;0.394;2023-10-31T00:58:58;1.63;;;1.20;;
17310;SDS011;8773;43.300;0.394;2023-10-31T01:01:25;1.83;;;1.57;;
17310;SDS011;8773;43.300;0.394;2023-10-31T01:03:53;1.17;;;1.00;;
17310;SDS011;8773;43.300;0.394;2023-10-31T01:06:20;2.00;;;1.50;;
17310;SDS011;8773;43.300;0.394;2023-10-31T01:08:49;1.10;;;1.00;;
17310;SDS011;8773;43.300;0.394;2023-10-31T01:11:16;0.90;;;0.90;;
17310;SDS011;8773;43.300;0.394;2023-10-31T01:13:43;1.73;;;1.00;;
17310;SDS011;8773;43.300;0.394;2023-10-31T01:16:11;1.07;;;1.00;;
17310;SDS011;8773;43.300;0.394;2023-10-31T01:18:38;2.20;;;0.90;;
17310;SDS011;8773;43.300;0.394;2023-10-31T01:21:06;1.83;;;1.23;;
17310;SDS011;8773;43.300;0.394;2023-10-31T01:23:33;1.30;;;1.20;;
17310;SDS011;8773;43.300;0.394;2023-10-31T01:26:02;1.50;;;1.03;;
17310;SDS011;8773;43.300;0.394;2023-10-31T01:28:29;1.07;;;1.07;;
17310;SDS011;8773;43.300;0.394;2023-10-31T01:30:57;0.90;;;0.90;;
17310;SDS011;8773;43.300;0.394;2023-10-31T01:33:24;1.83;;;1.20;;
17310;SDS011;8773;43.300;0.394;2023-10-31T01:35:52;1.47;;;1.30;;
17310;SDS011;8773;43.300;0.394;2023-10-31T01:38:19;4.43;;;1.63;;
17310;SDS011;8773;43.300;0.394;2023-10-31T01:40:48;1.77;;;1.60;;
17310;SDS011;8773;43.300;0.394;2023-10-31T01:43:30;3.13;;;1.73;;
17310;SDS011;8773;43.300;0.394;2023-10-31T01:45:58;2.90;;;1.77;;
17310;SDS011;8773;43.300;0.394;2023-10-31T01:48:25;2.90;;;1.70;;
17310;SDS011;8773;43.300;0.394;2023-10-31T01:50:56;2.00;;;1.37;;
17310;SDS011;8773;43.300;0.394;2023-10-31T01:53:24;3.10;;;1.30;;
17310;SDS011;8773;43.300;0.394;2023-10-31T01:55:52;1.40;;;1.30;;
17310;SDS011;8773;43.300;0.394;2023-10-31T01:58:21;2.73;;;1.30;;
17310;SDS011;8773;43.300;0.394;2023-10-31T02:00:54;1.17;;;1.03;;
17310;SDS011;8773;43.300;0.394;2023-10-31T02:03:22;1.23;;;1.13;;
17310;SDS011;8773;43.300;0.394;2023-10-31T02:05:50;1.40;;;1.00;;
17310;SDS011;8773;43.300;0.394;2023-10-31T02:08:18;1.33;;;1.10;;
17310;SDS011;8773;43.300;0.394;2023-10-31T02:10:45;1.13;;;1.00;;
17310;SDS011;8773;43.300;0.394;2023-10-31T02:13:13;2.67;;;1.40;;
17310;SDS011;8773;43.300;0.394;2023-10-31T02:15:41;1.30;;;1.20;;
17310;SDS011;8773;43.300;0.394;2023-10-31T02:18:10;2.17;;;1.17;;
17310;SDS011;8773;43.300;0.394;2023-10-31T02:20:39;2.10;;;1.30;;
17310;SDS011;8773;43.300;0.394;2023-10-31T02:23:09;1.63;;;1.10;;
17310;SDS011;8773;43.300;0.394;2023-10-31T02:25:36;1.63;;;1.10;;
17310;SDS011;8773;43.300;0.394;2023-10-31T02:28:04;2.40;;;1.00;;
17310;SDS011;8773;43.300;0.394;2023-10-31T02:30:31;1.20;;;0.93;;
17310;SDS011;8773;43.300;0.394;2023-10-31T02:33:00;1.10;;;1.00;;
17310;SDS011;8773;43.300;0.394;2023-10-31T02:35:27;2.53;;;1.20;;
17310;SDS011;8773;43.300;0.394;2023-10-31T02:37:55;0.90;;;0.90;;
17310;SDS011;8773;43.300;0.394;2023-10-31T02:40:23;1.00;;;0.90;;
17310;SDS011;8773;43.300;0.394;2023-10-31T02:42:51;1.63;;;1.10;;
17310;SDS011;8773;43.300;0.394;2023-10-31T02:45:18;2.53;;;1.20;;
17310;SDS011;8773;43.300;0.394;2023-10-31T02:47:45;1.00;;;1.00;;
17310;SDS011;8773;43.300;0.394;2023-10-31T02:50:13;2.73;;;0.93;;
17310;SDS011;8773;43.300;0.394;2023-10-31T02:52:40;0.80;;;0.80;;
17310;SDS011;8773;43.300;0.394;2023-10-31T02:55:08;0.97;;;0.93;;
17310;SDS011;8773;43.300;0.394;2023-10-31T02:57:36;1.37;;;1.03;;
17310;SDS011;8773;43.300;0.394;2023-10-31T03:00:04;1.03;;;0.80;;
17310;SDS011;8773;43.300;0.394;2023-10-31T03:02:32;0.60;;;0.60;;
17310;SDS011;8773;43.300;0.394;2023-10-31T03:05:00;1.13;;;0.80;;
17310;SDS011;8773;43.300;0.394;2023-10-31T03:07:27;1.80;;;0.80;;
17310;SDS011;8773;43.300;0.394;2023-10-31T03:09:55;1.10;;;0.60;;
17310;SDS011;8773;43.300;0.394;2023-10-31T03:12:22;0.50;;;0.50;;
17310;SDS011;8773;43.300;0.394;2023-10-31T03:14:51;0.70;;;0.70;;
17310;SDS011;8773;43.300;0.394;2023-10-31T03:17:18;1.20;;;0.70;;
17310;SDS011;8773;43.300;0.394;2023-10-31T03:19:46;0.70;;;0.70;;
17310;SDS011;8773;43.300;0.394;2023-10-31T03:22:13;0.70;;;0.70;;
17310;SDS011;8773;43.300;0.394;2023-10-31T03:24:40;0.60;;;0.60;;
17310;SDS011;8773;43.300;0.394;2023-10-31T03:27:08;0.63;;;0.50;;
17310;SDS011;8773;43.300;0.394;2023-10-31T03:29:35;0.73;;;0.73;;
17310;SDS011;8773;43.300;0.394;2023-10-31T03:32:04;0.60;;;0.60;;
17310;SDS011;8773;43.300;0.394;2023-10-31T03:34:32;0.50;;;0.50;;
17310;SDS011;8773;43.300;0.394;2023-10-31T03:36:59;0.63;;;0.63;;
17310;SDS011;8773;43.300;0.394;2023-10-31T03:39:27;0.60;;;0.60;;
17310;SDS011;8773;43.300;0.394;2023-10-31T03:41:54;0.80;;;0.80;;
17310;SDS011;8773;43.300;0.394;2023-10-31T03:44:22;0.60;;;0.60;;
17310;SDS011;8773;43.300;0.394;2023-10-31T03:46:49;1.27;;;0.60;;
17310;SDS011;8773;43.300;0.394;2023-10-31T03:49:18;0.50;;;0.50;;
17310;SDS011;8773;43.300;0.394;2023-10-31T03:51:45;0.60;;;0.60;;
17310;SDS011;8773;43.300;0.394;2023-10-31T03:54:13;0.83;;;0.70;;
17310;SDS011;8773;43.300;0.394;2023-10-31T03:56:40;1.17;;;0.60;;
17310;SDS011;8773;43.300;0.394;2023-10-31T03:59:09;0.80;;;0.70;;
17310;SDS011;8773;43.300;0.394;2023-10-31T04:01:36;0.50;;;0.50;;
17310;SDS011;8773;43.300;0.394;2023-10-31T04:04:04;0.87;;;0.70;;
17310;SDS011;8773;43.300;0.394;2023-10-31T04:06:33;0.70;;;0.70;;
17310;SDS011;8773;43.300;0.394;2023-10-31T04:09:00;0.60;;;0.60;;
17310;SDS011;8773;43.300;0.394;2023-10-31T04:11:28;0.57;;;0.57;;
17310;SDS011;8773;43.300;0.394;2023-10-31T04:13:55;0.50;;;0.50;;
17310;SDS011;8773;43.300;0.394;2023-10-31T04:16:23;0.77;;;0.70;;
17310;SDS011;8773;43.300;0.394;2023-10-31T04:18:50;1.33;;;0.97;;
17310;SDS011;8773;43.300;0.394;2023-10-31T04:21:17;1.40;;;0.80;;
17310;SDS011;8773;43.300;0.394;2023-10-31T04:23:46;0.97;;;0.70;;
17310;SDS011;8773;43.300;0.394;2023-10-31T04:26:13;0.97;;;0.70;;
17310;SDS011;8773;43.300;0.394;2023-10-31T04:28:41;1.87;;;0.70;;
17310;SDS011;8773;43.300;0.394;2023-10-31T04:31:08;0.70;;;0.70;;
17310;SDS011;8773;43.300;0.394;2023-10-31T04:33:35;2.33;;;0.60;;
17310;SDS011;8773;43.300;0.394;2023-10-31T04:36:03;0.67;;;0.67;;
17310;SDS011;8773;43.300;0.394;2023-10-31T04:38:31;0.50;;;0.50;;
17310;SDS011;8773;43.300;0.394;2023-10-31T04:41:00;0.60;;;0.60;;
17310;SDS011;8773;43.300;0.394;2023-10-31T04:43:27;0.80;;;0.80;;
17310;SDS011;8773;43.300;0.394;2023-10-31T04:45:54;0.40;;;0.40;;
17310;SDS011;8773;43.300;0.394;2023-10-31T04:48:22;0.60;;;0.60;;
17310;SDS011;8773;43.300;0.394;2023-10-31T04:50:49;0.50;;;0.50;;
17310;SDS011;8773;43.300;0.394;2023-10-31T04:53:16;0.60;;;0.60;;
17310;SDS011;8773;43.300;0.394;2023-10-31T04:55:44;1.23;;;0.67;;
17310;SDS011;8773;43.300;0.394;2023-10-31T04:58:12;1.10;;;0.80;;
17310;SDS011;8773;43.300;0.394;2023-10-31T05:00:40;1.03;;;0.70;;
17310;SDS011;8773;43.300;0.394;2023-10-31T05:03:07;1.77;;;0.80;;
17310;SDS011;8773;43.300;0.394;2023-10-31T05:05:34;2.03;;;0.73;;
17310;SDS011;8773;43.300;0.394;2023-10-31T05:08:02;0.90;;;0.90;;
17310;SDS011;8773;43.300;0.394;2023-10-31T05:10:29;0.80;;;0.73;;
17310;SDS011;8773;43.300;0.394;2023-10-31T05:12:57;0.80;;;0.80;;
17310;SDS011;8773;43.300;0.394;2023-10-31T05:15:25;0.73;;;0.60;;
17310;SDS011;8773;43.300;0.394;2023-10-31T05:17:55;0.60;;;0.60;;
17310;SDS011;8773;43.300;0.394;2023-10-31T05:20:22;1.00;;;0.90;;
17310;SDS011;8773;43.300;0.394;2023-10-31T05:22:50;0.80;;;0.80;;
17310;SDS011;8773;43.300;0.394;2023-10-31T05:25:17;0.73;;;0.73;;
17310;SDS011;8773;43.300;0.394;2023-10-31T05:27:45;1.20;;;1.10;;
17310;SDS011;8773;43.300;0.394;2023-10-31T05:30:13;1.40;;;1.10;;
17310;SDS011;8773;43.300;0.394;2023-10-31T05:32:42;1.07;;;1.03;;
17310;SDS011;8773;43.300;0.394;2023-10-31T05:35:09;0.90;;;0.90;;
17310;SDS011;8773;43.300;0.394;2023-10-31T05:37:37;1.10;;;1.00;;
17310;SDS011;8773;43.300;0.394;2023-10-31T05:40:04;0.97;;;0.83;;
17310;SDS011;8773;43.300;0.394;2023-10-31T05:42:32;1.00;;;1.00;;
17310;SDS011;8773;43.300;0.394;2023-10-31T05:45:00;3.13;;;1.27;;
17310;SDS011;8773;43.300;0.394;2023-10-31T05:47:27;1.67;;;0.90;;
17310;SDS011;8773;43.300;0.394;2023-10-31T05:49:56;1.13;;;1.03;;
17310;SDS011;8773;43.300;0.394;2023-10-31T05:52:27;1.10;;;1.10;;
17310;SDS011;8773;43.300;0.394;2023-10-31T05:54:55;1.10;;;1.00;;
17310;SDS011;8773;43.300;0.394;2023-10-31T05:57:22;1.53;;;1.00;;
17310;SDS011;8773;43.300;0.394;2023-10-31T05:59:50;1.00;;;0.90;;
17310;SDS011;8773;43.300;0.394;2023-10-31T06:02:17;1.00;;;1.00;;
17310;SDS011;8773;43.300;0.394;2023-10-31T06:04:45;0.90;;;0.90;;
17310;SDS011;8773;43.300;0.394;2023-10-31T06:07:13;0.90;;;0.80;;
17310;SDS011;8773;43.300;0.394;2023-10-31T06:09:40;1.00;;;1.00;;
17310;SDS011;8773;43.300;0.394;2023-10-31T06:12:08;0.90;;;0.80;;
17310;SDS011;8773;43.300;0.394;2023-10-31T06:14:35;0.90;;;0.90;;
17310;SDS011;8773;43.300;0.394;2023-10-31T06:17:04;2.23;;;1.00;;
17310;SDS011;8773;43.300;0.394;2023-10-31T06:19:33;1.20;;;1.10;;
17310;SDS011;8773;43.300;0.394;2023-10-31T06:22:01;1.30;;;0.97;;
17310;SDS011;8773;43.300;0.394;2023-10-31T06:24:29;1.33;;;1.00;;
17310;SDS011;8773;43.300;0.394;2023-10-31T06:26:57;2.43;;;0.80;;
17310;SDS011;8773;43.300;0.394;2023-10-31T06:29:24;2.00;;;0.90;;
17310;SDS011;8773;43.300;0.394;2023-10-31T06:31:54;1.20;;;1.10;;
17310;SDS011;8773;43.300;0.394;2023-10-31T06:34:21;1.00;;;1.00;;
17310;SDS011;8773;43.300;0.394;2023-10-31T06:36:49;1.37;;;1.27;;
17310;SDS011;8773;43.300;0.394;2023-10-31T06:39:16;1.13;;;1.03;;
17310;SDS011;8773;43.300;0.394;2023-10-31T06:41:45;1.80;;;1.20;;
17310;SDS011;8773;43.300;0.394;2023-10-31T06:44:12;1.00;;;0.90;;
17310;SDS011;8773;43.300;0.394;2023-10-31T06:46:39;1.37;;;0.90;;
17310;SDS011;8773;43.300;0.394;2023-10-31T06:49:07;0.97;;;0.70;;
17310;SDS011;8773;43.300;0.394;2023-10-31T06:51:34;2.23;;;1.00;;
17310;SDS011;8773;43.300;0.394;2023-10-31T06:54:01;1.37;;;1.10;;
17310;SDS011;8773;43.300;0.394;2023-10-31T06:56:29;3.47;;;1.00;;
17310;SDS011;8773;43.300;0.394;2023-10-31T06:58:57;2.43;;;1.30;;
17310;SDS011;8773;43.300;0.394;2023-10-31T07:01:25;1.60;;;1.10;;
17310;SDS011;8773;43.300;0.394;2023-10-31T07:03:52;1.17;;;1.10;;
17310;SDS011;8773;43.300;0.394;2023-10-31T07:06:20;0.90;;;0.90;;
17310;SDS011;8773;43.300;0.394;2023-10-31T07:08:47;2.87;;;1.20;;
17310;SDS011;8773;43.300;0.394;2023-10-31T07:11:15;1.13;;;1.00;;
17310;SDS011;8773;43.300;0.394;2023-10-31T07:13:42;1.50;;;1.10;;
17310;SDS011;8773;43.300;0.394;2023-10-31T07:16:11;1.23;;;0.90;;
17310;SDS011;8773;43.300;0.394;2023-10-31T07:18:38;1.27;;;1.17;;
17310;SDS011;8773;43.300;0.394;2023-10-31T07:21:06;2.77;;;0.93;;
17310;SDS011;8773;43.300;0.394;2023-10-31T07:23:33;1.17;;;1.00;;
17310;SDS011;8773;43.300;0.394;2023-10-31T07:26:04;2.40;;;1.17;;
17310;SDS011;8773;43.300;0.394;2023-10-31T07:28:31;2.17;;;1.53;;
17310;SDS011;8773;43.300;0.394;2023-10-31T07:30:59;1.10;;;1.10;;
17310;SDS011;8773;43.300;0.394;2023-10-31T07:33:28;3.23;;;1.87;;
17310;SDS011;8773;43.300;0.394;2023-10-31T07:35:56;2.10;;;1.27;;
17310;SDS011;8773;43.300;0.394;2023-10-31T07:38:23;0.90;;;0.90;;
17310;SDS011;8773;43.300;0.394;2023-10-31T07:40:51;1.53;;;0.93;;
17310;SDS011;8773;43.300;0.394;2023-10-31T07:43:18;1.33;;;1.17;;
17310;SDS011;8773;43.300;0.394;2023-10-31T07:45:45;2.13;;;1.00;;
17310;SDS011;8773;43.300;0.394;2023-10-31T07:48:12;1.97;;;1.40;;
17310;SDS011;8773;43.300;0.394;2023-10-31T07:50:41;1.70;;;1.20;;
17310;SDS011;8773;43.300;0.394;2023-10-31T07:53:08;2.83;;;1.53;;
17310;SDS011;8773;43.300;0.394;2023-10-31T07:55:36;1.33;;;1.07;;
17310;SDS011;8773;43.300;0.394;2023-10-31T07:58:03;1.00;;;1.00;;
17310;SDS011;8773;43.300;0.394;2023-10-31T08:00:31;2.03;;;1.30;;
17310;SDS011;8773;43.300;0.394;2023-10-31T08:02:58;2.10;;;1.20;;
17310;SDS011;8773;43.300;0.394;2023-10-31T08:05:25;1.90;;;1.43;;
17310;SDS011;8773;43.300;0.394;2023-10-31T08:07:54;1.37;;;1.23;;
17310;SDS011;8773;43.300;0.394;2023-10-31T08:10:21;1.70;;;1.23;;
17310;SDS011;8773;43.300;0.394;2023-10-31T08:12:49;1.30;;;1.00;;
17310;SDS011;8773;43.300;0.394;2023-10-31T08:15:16;2.10;;;1.00;;
17310;SDS011;8773;43.300;0.394;2023-10-31T08:17:43;0.93;;;0.90;;
17310;SDS011;8773;43.300;0.394;2023-10-31T08:20:11;0.77;;;0.77;;
17310;SDS011;8773;43.300;0.394;2023-10-31T08:22:38;1.70;;;0.90;;
17310;SDS011;8773;43.300;0.394;2023-10-31T08:25:07;1.53;;;1.17;;
17310;SDS011;8773;43.300;0.394;2023-10-31T08:27:35;1.73;;;1.20;;
17310;SDS011;8773;43.300;0.394;2023-10-31T08:30:02;1.63;;;1.00;;
17310;SDS011;8773;43.300;0.394;2023-10-31T08:32:30;1.43;;;1.07;;
17310;SDS011;8773;43.300;0.394;2023-10-31T08:34:57;1.97;;;1.00;;
17310;SDS011;8773;43.300;0.394;2023-10-31T08:37:25;1.33;;;1.10;;
17310;SDS011;8773;43.300;0.394;2023-10-31T08:39:52;2.13;;;1.20;;
17310;SDS011;8773;43.300;0.394;2023-10-31T08:42:21;1.30;;;0.97;;
17310;SDS011;8773;43.300;0.394;2023-10-31T08:44:48;1.93;;;1.43;;
17310;SDS011;8773;43.300;0.394;2023-10-31T08:47:15;4.20;;;1.40;;
17310;SDS011;8773;43.300;0.394;2023-10-31T08:49:43;3.63;;;1.57;;
17310;SDS011;8773;43.300;0.394;2023-10-31T08:52:10;1.33;;;1.03;;
17310;SDS011;8773;43.300;0.394;2023-10-31T08:54:37;2.10;;;1.20;;
17310;SDS011;8773;43.300;0.394;2023-10-31T08:57:05;2.20;;;1.10;;
17310;SDS011;8773;43.300;0.394;2023-10-31T08:59:33;2.00;;;1.00;;
17310;SDS011;8773;43.300;0.394;2023-10-31T09:02:01;2.03;;;1.20;;
17310;SDS011;8773;43.300;0.394;2023-10-31T09:04:28;3.37;;;1.23;;
17310;SDS011;8773;43.300;0.394;2023-10-31T09:06:55;3.53;;;1.10;;
17310;SDS011;8773;43.300;0.394;2023-10-31T09:09:23;2.20;;;1.07;;
17310;SDS011;8773;43.300;0.394;2023-10-31T09:11:50;1.37;;;1.10;;
17310;SDS011;8773;43.300;0.394;2023-10-31T09:14:17;2.60;;;1.40;;
17310;SDS011;8773;43.300;0.394;2023-10-31T09:16:46;1.23;;;1.00;;
17310;SDS011;8773;43.300;0.394;2023-10-31T09:19:13;1.90;;;1.37;;
17310;SDS011;8773;43.300;0.394;2023-10-31T09:21:41;1.63;;;1.30;;
17310;SDS011;8773;43.300;0.394;2023-10-31T09:24:09;2.07;;;1.57;;
17310;SDS011;8773;43.300;0.394;2023-10-31T09:26:37;1.47;;;1.20;;
17310;SDS011;8773;43.300;0.394;2023-10-31T09:29:08;1.53;;;1.00;;
17310;SDS011;8773;43.300;0.394;2023-10-31T09:31:50;1.00;;;0.90;;
17310;SDS011;8773;43.300;0.394;2023-10-31T09:34:17;1.83;;;1.23;;
17310;SDS011;8773;43.300;0.394;2023-10-31T09:36:44;1.77;;;1.50;;
17310;SDS011;8773;43.300;0.394;2023-10-31T09:39:13;10.43;;;3.88;;
17310;SDS011;8773;43.300;0.394;2023-10-31T09:41:40;4.60;;;2.23;;
17310;SDS011;8773;43.300;0.394;2023-10-31T09:44:07;1.90;;;1.60;;
17310;SDS011;8773;43.300;0.394;2023-10-31T09:46:35;4.15;;;2.33;;
17310;SDS011;8773;43.300;0.394;2023-10-31T09:49:04;2.53;;;2.03;;
17310;SDS011;8773;43.300;0.394;2023-10-31T09:51:31;2.08;;;1.45;;
17310;SDS011;8773;43.300;0.394;2023-10-31T09:53:59;1.88;;;1.42;;
17310;SDS011;8773;43.300;0.394;2023-10-31T09:56:29;2.67;;;1.23;;
17310;SDS011;8773;43.300;0.394;2023-10-31T09:58:56;3.17;;;1.58;;
17310;SDS011;8773;43.300;0.394;2023-10-31T10:01:24;2.95;;;1.23;;
17310;SDS011;8773;43.300;0.394;2023-10-31T10:03:51;2.33;;;1.50;;
17310;SDS011;8773;43.300;0.394;2023-10-31T10:06:20;2.78;;;1.20;;
17310;SDS011;8773;43.300;0.394;2023-10-31T10:08:48;1.55;;;1.45;;
17310;SDS011;8773;43.300;0.394;2023-10-31T10:11:16;2.43;;;1.47;;
17310;SDS011;8773;43.300;0.394;2023-10-31T10:13:43;3.33;;;1.43;;
17310;SDS011;8773;43.300;0.394;2023-10-31T10:16:11;4.40;;;1.63;;
17310;SDS011;8773;43.300;0.394;2023-10-31T10:18:39;2.83;;;1.92;;
17310;SDS011;8773;43.300;0.394;2023-10-31T10:21:06;1.83;;;1.58;;
17310;SDS011;8773;43.300;0.394;2023-10-31T10:23:36;2.00;;;1.70;;
17310;SDS011;8773;43.300;0.394;2023-10-31T10:26:03;3.50;;;1.77;;
17310;SDS011;8773;43.300;0.394;2023-10-31T10:28:31;1.95;;;1.55;;
17310;SDS011;8773;43.300;0.394;2023-10-31T10:30:58;2.75;;;1.50;;
17310;SDS011;8773;43.300;0.394;2023-10-31T10:33:25;3.58;;;1.70;;
17310;SDS011;8773;43.300;0.394;2023-10-31T10:35:53;2.50;;;1.60;;
17310;SDS011;8773;43.300;0.394;2023-10-31T10:38:21;3.72;;;1.70;;
17310;SDS011;8773;43.300;0.394;2023-10-31T10:40:50;1.30;;;1.20;;
17310;SDS011;8773;43.300;0.394;2023-10-31T10:43:22;2.92;;;1.60;;
17310;SDS011;8773;43.300;0.394;2023-10-31T10:45:52;3.22;;;1.58;;
17310;SDS011;8773;43.300;0.394;2023-10-31T10:48:21;1.65;;;1.30;;
17310;SDS011;8773;43.300;0.394;2023-10-31T10:50:51;2.70;;;1.52;;
17310;SDS011;8773;43.300;0.394;2023-10-31T10:53:24;4.22;;;2.22;;
17310;SDS011;8773;43.300;0.394;2023-10-31T10:55:55;4.32;;;2.20;;
17310;SDS011;8773;43.300;0.394;2023-10-31T10:58:27;1.65;;;1.27;;
17310;SDS011;8773;43.300;0.394;2023-10-31T11:01:00;1.45;;;1.30;;
17310;SDS011;8773;43.300;0.394;2023-10-31T11:03:28;1.55;;;1.10;;
17310;SDS011;8773;43.300;0.394;2023-10-31T11:05:56;1.85;;;1.20;;
17310;SDS011;8773;43.300;0.394;2023-10-31T11:08:24;1.77;;;1.25;;
17310;SDS011;8773;43.300;0.394;2023-10-31T11:10:53;2.33;;;1.20;;
17310;SDS011;8773;43.300;0.394;2023-10-31T11:13:22;2.05;;;1.15;;
17310;SDS011;8773;43.300;0.394;2023-10-31T11:15:51;1.67;;;1.23;;
17310;SDS011;8773;43.300;0.394;2023-10-31T11:18:22;1.63;;;1.02;;
17310;SDS011;8773;43.300;0.394;2023-10-31T11:20:51;1.85;;;1.15;;
17310;SDS011;8773;43.300;0.394;2023-10-31T11:23:19;2.90;;;1.67;;
17310;SDS011;8773;43.300;0.394;2023-10-31T11:25:48;4.35;;;2.92;;
17310;SDS011;8773;43.300;0.394;2023-10-31T11:28:18;2.78;;;1.30;;
17310;SDS011;8773;43.300;0.394;2023-10-31T11:30:47;3.67;;;1.42;;
17310;SDS011;8773;43.300;0.394;2023-10-31T11:33:18;1.92;;;1.33;;
17310;SDS011;8773;43.300;0.394;2023-10-31T11:35:49;1.23;;;1.00;;
17310;SDS011;8773;43.300;0.394;2023-10-31T11:38:17;2.55;;;1.00;;
17310;SDS011;8773;43.300;0.394;2023-10-31T11:40:58;2.88;;;1.27;;
17310;SDS011;8773;43.300;0.394;2023-10-31T11:43:36;3.10;;;1.67;;
17310;SDS011;8773;43.300;0.394;2023-10-31T11:46:18;3.00;;;1.40;;
17310;SDS011;8773;43.300;0.394;2023-10-31T11:48:46;1.38;;;1.05;;
17310;SDS011;8773;43.300;0.394;2023-10-31T11:51:14;1.75;;;0.93;;
17310;SDS011;8773;43.300;0.394;2023-10-31T11:53:41;2.00;;;1.00;;
17310;SDS011;8773;43.300;0.394;2023-10-31T11:56:10;1.60;;;1.27;;
17310;SDS011;8773;43.300;0.394;2023-10-31T11:58:40;1.50;;;1.10;;
17310;SDS011;8773;43.300;0.394;2023-10-31T12:01:08;2.22;;;1.50;;
17310;SDS011;8773;43.300;0.394;2023-10-31T12:03:36;1.50;;;1.20;;
17310;SDS011;8773;43.300;0.394;2023-10-31T12:06:05;2.05;;;1.27;;
17310;SDS011;8773;43.300;0.394;2023-10-31T12:08:34;2.55;;;1.20;;
17310;SDS011;8773;43.300;0.394;2023-10-31T12:11:03;1.88;;;1.20;;
17310;SDS011;8773;43.300;0.394;2023-10-31T12:13:34;1.00;;;0.90;;
17310;SDS011;8773;43.300;0.394;2023-10-31T12:16:05;2.50;;;1.30;;
17310;SDS011;8773;43.300;0.394;2023-10-31T12:18:33;1.20;;;1.08;;
17310;SDS011;8773;43.300;0.394;2023-10-31T12:21:01;1.23;;;0.88;;
17310;SDS011;8773;43.300;0.394;2023-10-31T12:23:30;1.60;;;0.90;;
17310;SDS011;8773;43.300;0.394;2023-10-31T12:25:57;0.93;;;0.93;;
17310;SDS011;8773;43.300;0.394;2023-10-31T12:28:24;2.05;;;1.00;;
17310;SDS011;8773;43.300;0.394;2023-10-31T12:30:52;2.03;;;0.90;;
17310;SDS011;8773;43.300;0.394;2023-10-31T12:33:22;1.95;;;1.10;;
17310;SDS011;8773;43.300;0.394;2023-10-31T12:35:55;1.35;;;0.70;;
17310;SDS011;8773;43.300;0.394;2023-10-31T12:38:24;1.55;;;1.00;;
17310;SDS011;8773;43.300;0.394;2023-10-31T12:40:52;1.27;;;0.80;;
17310;SDS011;8773;43.300;0.394;2023-10-31T12:43:20;0.75;;;0.75;;
17310;SDS011;8773;43.300;0.394;2023-10-31T12:45:48;0.80;;;0.80;;
17310;SDS011;8773;43.300;0.394;2023-10-31T12:48:15;2.05;;;0.80;;
17310;SDS011;8773;43.300;0.394;2023-10-31T12:50:44;0.85;;;0.85;;
17310;SDS011;8773;43.300;0.394;2023-10-31T12:53:22;1.23;;;0.90;;
17310;SDS011;8773;43.300;0.394;2023-10-31T12:55:50;0.90;;;0.90;;
17310;SDS011;8773;43.300;0.394;2023-10-31T12:58:19;0.80;;;0.80;;
17310;SDS011;8773;43.300;0.394;2023-10-31T13:00:47;1.38;;;0.90;;
17310;SDS011;8773;43.300;0.394;2023-10-31T13:03:14;0.82;;;0.82;;
17310;SDS011;8773;43.300;0.394;2023-10-31T13:05:42;2.80;;;0.90;;
17310;SDS011;8773;43.300;0.394;2023-10-31T13:08:13;1.80;;;0.70;;
17310;SDS011;8773;43.300;0.394;2023-10-31T13:10:41;0.95;;;0.70;;
17310;SDS011;8773;43.300;0.394;2023-10-31T13:13:09;1.58;;;0.65;;
17310;SDS011;8773;43.300;0.394;2023-10-31T13:15:36;0.80;;;0.80;;
17310;SDS011;8773;43.300;0.394;2023-10-31T13:18:03;1.45;;;1.00;;
17310;SDS011;8773;43.300;0.394;2023-10-31T13:20:31;1.80;;;1.00;;
17310;SDS011;8773;43.300;0.394;2023-10-31T13:23:00;3.13;;;1.00;;
17310;SDS011;8773;43.300;0.394;2023-10-31T13:25:27;0.95;;;0.95;;
17310;SDS011;8773;43.300;0.394;2023-10-31T13:27:55;0.63;;;0.63;;
17310;SDS011;8773;43.300;0.394;2023-10-31T13:30:22;1.67;;;0.63;;
17310;SDS011;8773;43.300;0.394;2023-10-31T13:32:51;1.02;;;0.70;;
17310;SDS011;8773;43.300;0.394;2023-10-31T13:35:18;1.73;;;0.65;;
17310;SDS011;8773;43.300;0.394;2023-10-31T13:37:45;0.77;;;0.70;;
17310;SDS011;8773;43.300;0.394;2023-10-31T13:40:14;0.73;;;0.52;;
17310;SDS011;8773;43.300;0.394;2023-10-31T13:42:41;0.65;;;0.65;;
17310;SDS011;8773;43.300;0.394;2023-10-31T13:45:09;0.60;;;0.60;;
17310;SDS011;8773;43.300;0.394;2023-10-31T13:47:36;1.63;;;0.88;;
17310;SDS011;8773;43.300;0.394;2023-10-31T13:50:04;1.00;;;0.80;;
17310;SDS011;8773;43.300;0.394;2023-10-31T13:52:33;1.90;;;0.80;;
17310;SDS011;8773;43.300;0.394;2023-10-31T13:55:00;0.68;;;0.68;;
17310;SDS011;8773;43.300;0.394;2023-10-31T13:57:29;1.98;;;0.80;;
17310;SDS011;8773;43.300;0.394;2023-10-31T13:59:56;1.20;;;0.82;;
17310;SDS011;8773;43.300;0.394;2023-10-31T14:02:24;1.42;;;0.90;;
17310;SDS011;8773;43.300;0.394;2023-10-31T14:04:51;1.10;;;0.85;;
17310;SDS011;8773;43.300;0.394;2023-10-31T14:07:20;1.02;;;0.85;;
17310;SDS011;8773;43.300;0.394;2023-10-31T14:09:48;0.77;;;0.77;;
17310;SDS011;8773;43.300;0.394;2023-10-31T14:12:16;2.05;;;1.10;;
17310;SDS011;8773;43.300;0.394;2023-10-31T14:14:45;0.88;;;0.50;;
17310;SDS011;8773;43.300;0.394;2023-10-31T14:17:12;1.15;;;0.63;;
17310;SDS011;8773;43.300;0.394;2023-10-31T14:19:39;0.65;;;0.65;;
17310;SDS011;8773;43.300;0.394;2023-10-31T14:22:09;1.35;;;0.70;;
17310;SDS011;8773;43.300;0.394;2023-10-31T14:24:38;2.88;;;1.00;;
17310;SDS011;8773;43.300;0.394;2023-10-31T14:27:06;0.88;;;0.80;;
17310;SDS011;8773;43.300;0.394;2023-10-31T14:29:34;0.75;;;0.75;;
17310;SDS011;8773;43.300;0.394;2023-10-31T14:32:06;2.13;;;1.05;;
17310;SDS011;8773;43.300;0.394;2023-10-31T14:34:35;1.42;;;1.00;;
17310;SDS011;8773;43.300;0.394;2023-10-31T14:37:02;0.75;;;0.60;;
17310;SDS011;8773;43.300;0.394;2023-10-31T14:39:30;0.60;;;0.50;;
17310;SDS011;8773;43.300;0.394;2023-10-31T14:41:57;0.60;;;0.57;;
17310;SDS011;8773;43.300;0.394;2023-10-31T14:44:25;2.85;;;1.73;;
17310;SDS011;8773;43.300;0.394;2023-10-31T14:46:52;1.85;;;1.45;;
17310;SDS011;8773;43.300;0.394;2023-10-31T14:49:21;0.60;;;0.60;;
17310;SDS011;8773;43.300;0.394;2023-10-31T14:51:48;1.55;;;0.70;;
17310;SDS011;8773;43.300;0.394;2023-10-31T14:54:16;1.85;;;0.98;;
17310;SDS011;8773;43.300;0.394;2023-10-31T14:56:43;0.52;;;0.52;;
17310;SDS011;8773;43.300;0.394;2023-10-31T14:59:10;1.02;;;0.95;;
17310;SDS011;8773;43.300;0.394;2023-10-31T15:01:38;0.98;;;0.82;;
17310;SDS011;8773;43.300;0.394;2023-10-31T15:04:05;0.60;;;0.60;;
17310;SDS011;8773;43.300;0.394;2023-10-31T15:06:34;0.88;;;0.88;;